createdAt,value
2023-04-03T00:02:44.926Z,1.91
2023-04-03T00:06:48.283Z,1.96
2023-04-03T00:10:51.769Z,2.05
2023-04-03T00:14:54.658Z,2.09
2023-04-03T00:18:57.901Z,2.12
2023-04-03T00:23:03.591Z,2.14
2023-04-03T00:27:06.719Z,2.15
2023-04-03T00:31:09.693Z,2.18
2023-04-03T00:35:12.685Z,2.21
2023-04-03T00:39:15.654Z,2.24
2023-04-03T00:43:21.613Z,2.20
2023-04-03T00:47:25.629Z,2.15
2023-04-03T00:51:29.401Z,2.09
2023-04-03T00:55:32.784Z,2.00
2023-04-03T00:59:40.356Z,1.95
2023-04-03T01:03:43.971Z,1.88
2023-04-03T01:07:47.659Z,1.84
2023-04-03T01:11:50.553Z,1.82
2023-04-03T01:15:54.626Z,1.81
2023-04-03T01:20:37.701Z,1.76
2023-04-03T01:24:41.203Z,1.74
2023-04-03T01:28:44.185Z,1.65
2023-04-03T01:32:47.329Z,1.58
2023-04-03T01:36:51.918Z,1.53
2023-04-03T01:41:16.605Z,1.52
2023-04-03T01:45:19.694Z,1.52
2023-04-03T01:49:22.946Z,1.52
2023-04-03T01:53:26.296Z,1.49
2023-04-03T01:57:29.663Z,1.50
2023-04-03T02:01:32.921Z,1.46
2023-04-03T02:05:36.097Z,1.42
2023-04-03T02:09:38.945Z,1.35
2023-04-03T02:13:41.968Z,1.28
2023-04-03T02:17:45.459Z,1.18
2023-04-03T02:21:48.958Z,1.13
2023-04-03T02:25:51.818Z,1.04
2023-04-03T02:29:55.037Z,0.97
2023-04-03T02:33:57.979Z,0.95
2023-04-03T02:38:01.287Z,0.87
2023-04-03T02:42:04.498Z,0.81
2023-04-03T02:46:07.933Z,0.76
2023-04-03T02:50:11.373Z,0.73
2023-04-03T02:54:14.954Z,0.69
2023-04-03T02:58:18.281Z,0.65
2023-04-03T03:02:22.949Z,0.61
2023-04-03T03:06:26.854Z,0.56
2023-04-03T03:10:30.543Z,0.51
2023-04-03T03:14:33.514Z,0.48
2023-04-03T03:18:37.825Z,0.45
2023-04-03T03:22:40.856Z,0.42
2023-04-03T03:26:44.236Z,0.40
2023-04-03T03:30:47.733Z,0.40
2023-04-03T03:34:52.876Z,0.30
2023-04-03T03:38:56.533Z,0.28
2023-04-03T03:43:00.691Z,0.24
2023-04-03T03:47:04.228Z,0.17
2023-04-03T03:51:07.502Z,0.12
2023-04-03T03:55:10.603Z,0.12
2023-04-03T03:59:13.879Z,0.10
2023-04-03T04:03:17.599Z,0.06
2023-04-03T04:07:20.956Z,0.07
2023-04-03T04:11:24.441Z,0.04
2023-04-03T04:15:28.789Z,0.04
2023-04-03T04:19:32.162Z,0.01
2023-04-03T04:23:35.305Z,-0.01
2023-04-03T04:27:38.746Z,-0.02
2023-04-03T04:31:41.677Z,-0.03
2023-04-03T04:35:44.922Z,-0.05
2023-04-03T04:39:47.992Z,-0.01
2023-04-03T04:43:51.910Z,-0.04
2023-04-03T04:47:57.129Z,-0.01
2023-04-03T04:52:00.291Z,0.07
2023-04-03T04:56:03.582Z,0.61
2023-04-03T05:00:07.128Z,1.38
2023-04-03T05:04:13.779Z,2.10
2023-04-03T05:08:18.754Z,2.73
2023-04-03T05:12:23.133Z,3.29
2023-04-03T05:16:26.641Z,3.68
2023-04-03T05:20:29.724Z,3.98
2023-04-03T05:24:32.770Z,4.23
2023-04-03T05:28:36.237Z,4.51
2023-04-03T05:32:39.918Z,4.78
2023-04-03T05:36:43.371Z,4.93
2023-04-03T05:40:46.863Z,5.03
2023-04-03T05:44:51.210Z,5.04
2023-04-03T05:48:54.617Z,4.96
2023-04-03T05:52:59.866Z,4.86
2023-04-03T05:57:02.960Z,4.81
2023-04-03T06:01:06.642Z,4.83
2023-04-03T06:05:12.526Z,4.91
2023-04-03T06:09:16.609Z,4.76
2023-04-03T06:13:19.551Z,4.71
2023-04-03T06:17:22.875Z,4.65
2023-04-03T06:21:26.165Z,4.66
2023-04-03T06:25:29.351Z,4.62
2023-04-03T06:29:32.868Z,4.57
2023-04-03T06:33:36.225Z,4.62
2023-04-03T06:37:39.507Z,4.63
2023-04-03T06:41:43.078Z,4.61
2023-04-03T06:45:46.321Z,4.66
2023-04-03T06:49:49.975Z,4.68
2023-04-03T06:53:54.807Z,4.70
2023-04-03T06:57:58.006Z,4.67
2023-04-03T07:02:01.666Z,4.67
2023-04-03T07:06:06.766Z,4.79
2023-04-03T07:10:11.060Z,4.94
2023-04-03T07:14:14.478Z,4.97
2023-04-03T07:18:20.805Z,4.97
2023-04-03T07:22:24.233Z,4.95
2023-04-03T07:26:27.236Z,4.86
2023-04-03T07:30:31.612Z,4.78
2023-04-03T07:34:35.597Z,4.68
2023-04-03T07:38:39.001Z,4.42
2023-04-03T07:42:43.041Z,4.27
2023-04-03T07:46:47.935Z,4.31
2023-04-03T07:50:51.627Z,4.24
2023-04-03T07:54:55.213Z,4.30
2023-04-03T07:58:58.948Z,4.55
2023-04-03T08:03:02.815Z,4.76
2023-04-03T08:07:06.663Z,4.72
2023-04-03T08:11:11.687Z,4.61
2023-04-03T08:15:15.362Z,4.88
2023-04-03T08:19:26.185Z,5.10
2023-04-03T08:23:30.498Z,5.35
2023-04-03T08:27:34.645Z,5.43
2023-04-03T08:31:38.189Z,5.32
2023-04-03T08:35:42.686Z,5.38
2023-04-03T08:39:46.379Z,5.16
2023-04-03T08:44:17.388Z,5.01
2023-04-03T08:48:34.376Z,4.85
2023-04-03T08:52:49.291Z,4.87
2023-04-03T08:56:52.805Z,4.85
2023-04-03T09:01:14.096Z,4.78
2023-04-03T09:05:33.770Z,4.91
2023-04-03T09:09:42.540Z,5.19
2023-04-03T09:14:12.328Z,5.30
2023-04-03T09:18:25.312Z,5.07
2023-04-03T09:22:41.803Z,4.88
2023-04-03T09:27:01.740Z,4.98
2023-04-03T09:31:17.871Z,4.90
2023-04-03T09:35:39.969Z,4.82
2023-04-03T09:39:54.542Z,5.21
2023-04-03T09:43:57.909Z,5.55
2023-04-03T09:48:16.756Z,5.40
2023-04-03T09:52:24.431Z,5.22
2023-04-03T09:56:32.688Z,5.46
2023-04-03T10:00:39.244Z,5.45
2023-04-03T10:04:48.790Z,5.29
2023-04-03T10:09:03.925Z,5.16
2023-04-03T10:13:07.402Z,5.00
2023-04-03T10:17:20.862Z,5.30
2023-04-03T10:21:52.208Z,5.29
2023-04-03T10:26:01.659Z,5.51
2023-04-03T10:30:21.985Z,5.49
2023-04-03T10:34:28.419Z,5.40
2023-04-03T10:38:47.158Z,5.61
2023-04-03T10:43:08.329Z,5.91
2023-04-03T10:47:11.449Z,6.10
2023-04-03T10:51:30.446Z,6.09
2023-04-03T10:55:48.626Z,5.95
2023-04-03T11:00:05.691Z,5.97
2023-04-03T11:04:11.871Z,5.77
2023-04-03T11:08:45.750Z,5.47
2023-04-03T11:13:07.977Z,5.50
2023-04-03T11:17:17.691Z,5.87
2023-04-03T11:21:27.829Z,6.09
2023-04-03T11:25:35.743Z,6.20
2023-04-03T11:29:42.041Z,5.96
2023-04-03T11:34:09.315Z,5.76
2023-04-03T11:38:23.137Z,5.64
2023-04-03T11:42:31.698Z,5.68
2023-04-03T11:46:58.448Z,5.56
2023-04-03T11:51:21.865Z,5.48
2023-04-03T11:55:28.120Z,5.66
2023-04-03T11:59:38.535Z,5.87
2023-04-03T12:03:42.131Z,5.77
2023-04-03T12:08:25.335Z,5.88
2023-04-03T12:12:38.912Z,5.84
2023-04-03T12:16:42.173Z,5.69
2023-04-03T12:21:04.390Z,5.67
2023-04-03T12:25:45.818Z,5.94
2023-04-03T12:29:57.092Z,5.80
2023-04-03T12:34:31.024Z,5.69
2023-04-03T12:38:35.471Z,5.82
2023-04-03T12:43:04.118Z,6.22
2023-04-03T12:47:34.153Z,6.35
2023-04-03T12:51:42.321Z,6.13
2023-04-03T12:55:45.522Z,6.24
2023-04-03T12:59:48.732Z,6.47
2023-04-03T13:03:55.322Z,6.73
2023-04-03T13:08:06.065Z,6.75
2023-04-03T13:12:15.523Z,6.43
2023-04-03T13:16:18.502Z,6.19
2023-04-03T13:20:24.247Z,6.15
2023-04-03T13:24:27.934Z,6.29
2023-04-03T13:28:33.148Z,6.32
2023-04-03T13:32:37.212Z,6.19
2023-04-03T13:36:45.595Z,6.22
2023-04-03T13:45:29.559Z,6.56
2023-04-03T13:49:43.017Z,6.40
2023-04-03T13:53:50.381Z,6.22
2023-04-03T13:58:19.889Z,6.08
2023-04-03T14:02:32.100Z,6.16
2023-04-03T14:06:35.459Z,6.38
2023-04-03T14:10:39.751Z,6.37
2023-04-03T14:14:43.685Z,6.30
2023-04-03T14:18:47.783Z,6.31
2023-04-03T14:22:52.259Z,6.32
2023-04-03T14:26:56.572Z,6.24
2023-04-03T14:30:59.655Z,6.12
2023-04-03T14:35:04.270Z,5.98
2023-04-03T14:39:09.777Z,5.86
2023-04-03T14:43:13.545Z,5.80
2023-04-03T14:47:30.439Z,5.74
2023-04-03T14:51:35.227Z,5.75
2023-04-03T14:55:38.085Z,5.67
2023-04-03T14:59:41.445Z,5.77
2023-04-03T15:03:44.403Z,5.79
2023-04-03T15:07:54.991Z,5.77
2023-04-03T15:11:57.898Z,5.71
2023-04-03T15:16:01.302Z,5.60
2023-04-03T15:20:12.553Z,5.52
2023-04-03T15:24:15.889Z,5.43
2023-04-03T15:28:33.206Z,5.42
2023-04-03T15:32:36.409Z,5.38
2023-04-03T15:36:40.602Z,5.36
2023-04-03T15:40:44.662Z,5.31
2023-04-03T15:44:47.555Z,5.27
2023-04-03T15:48:50.788Z,5.22
2023-04-03T15:52:58.939Z,5.18
2023-04-03T15:57:02.127Z,5.16
2023-04-03T16:01:06.503Z,5.16
2023-04-03T16:09:12.852Z,5.14
2023-04-03T16:13:16.401Z,5.11
2023-04-03T16:17:19.488Z,5.11
2023-04-03T16:21:23.525Z,5.09
2023-04-03T16:25:27.476Z,5.04
2023-04-03T16:29:30.822Z,5.03
2023-04-03T16:33:34.452Z,5.03
2023-04-03T16:37:42.168Z,4.98
2023-04-03T16:41:46.315Z,4.93
2023-04-03T16:45:49.088Z,4.89
2023-04-03T16:49:52.149Z,4.85
2023-04-03T16:53:54.940Z,4.82
2023-04-03T16:57:58.335Z,4.80
2023-04-03T17:02:01.292Z,4.75
2023-04-03T17:06:04.263Z,4.78
2023-04-03T17:10:07.990Z,4.75
2023-04-03T17:14:11.006Z,4.73
2023-04-03T17:18:14.229Z,4.69
2023-04-03T17:22:18.192Z,4.67
2023-04-03T17:26:22.294Z,4.71
2023-04-03T17:30:25.535Z,4.75
2023-04-03T17:34:28.828Z,4.76
2023-04-03T17:38:33.498Z,4.73
2023-04-03T17:42:36.443Z,4.70
2023-04-03T17:46:39.558Z,4.67
2023-04-03T17:50:42.598Z,4.67
2023-04-03T17:54:45.577Z,4.65
2023-04-03T17:58:49.401Z,4.70
2023-04-03T18:02:54.320Z,4.73
2023-04-03T18:06:57.437Z,4.76
2023-04-03T18:11:00.442Z,4.76
2023-04-03T18:15:05.169Z,4.74
2023-04-03T18:19:22.018Z,4.69
2023-04-03T18:23:28.845Z,4.61
2023-04-03T18:27:32.072Z,4.54
2023-04-03T18:31:36.491Z,4.51
2023-04-03T18:35:39.444Z,4.49
2023-04-03T18:39:42.491Z,4.47
2023-04-03T18:43:45.361Z,4.43
2023-04-03T18:47:48.352Z,4.38
2023-04-03T18:51:51.341Z,4.32
2023-04-03T18:55:55.006Z,4.31
2023-04-03T18:59:57.838Z,4.27
2023-04-03T19:04:01.165Z,4.26
2023-04-03T19:08:04.545Z,4.21
2023-04-03T19:12:07.541Z,4.17
2023-04-03T19:16:11.069Z,4.13
2023-04-03T19:20:14.669Z,4.10
2023-04-03T19:24:18.668Z,4.11
2023-04-03T19:28:21.695Z,4.13
2023-04-03T19:32:27.308Z,4.18
2023-04-03T19:36:31.389Z,4.19
2023-04-03T19:40:35.534Z,4.12
2023-04-03T19:44:38.842Z,4.09
2023-04-03T19:48:42.226Z,4.07
2023-04-03T19:52:45.116Z,4.05
2023-04-03T19:56:48.186Z,4.05
2023-04-03T20:00:51.939Z,3.99
2023-04-03T20:04:55.322Z,4.00
2023-04-03T20:08:59.293Z,3.94
2023-04-03T20:13:04.269Z,3.88
2023-04-03T20:17:07.330Z,3.85
2023-04-03T20:21:11.024Z,3.85
2023-04-03T20:25:17.502Z,3.85
2023-04-03T20:29:27.502Z,3.90
2023-04-03T20:33:30.593Z,3.95
2023-04-03T20:37:33.839Z,3.98
2023-04-03T20:41:37.679Z,4.02
2023-04-03T20:45:40.618Z,4.05
2023-04-03T20:49:43.765Z,4.07
2023-04-03T20:53:48.207Z,4.14
2023-04-03T20:57:54.234Z,4.14
2023-04-03T21:01:58.417Z,4.11
2023-04-03T21:06:01.084Z,4.06
2023-04-03T21:10:41.719Z,4.04
2023-04-03T21:15:23.057Z,3.99
2023-04-03T21:19:26.363Z,3.96
2023-04-03T21:23:30.710Z,3.90
2023-04-03T21:27:34.566Z,3.83
2023-04-03T21:31:48.643Z,3.77
2023-04-03T21:35:57.860Z,3.72
2023-04-03T21:40:01.164Z,3.71
2023-04-03T21:44:04.963Z,3.67
2023-04-03T21:48:10.248Z,3.62
2023-04-03T21:52:13.046Z,3.63
2023-04-03T21:56:15.815Z,3.63
2023-04-03T22:00:19.710Z,3.63
2023-04-03T22:04:22.822Z,3.64
2023-04-03T22:08:25.949Z,3.67
2023-04-03T22:12:29.546Z,3.71
2023-04-03T22:16:32.452Z,3.74
2023-04-03T22:20:35.683Z,3.75
2023-04-03T22:24:38.536Z,3.74
2023-04-03T22:28:44.485Z,3.68
2023-04-03T22:32:47.411Z,3.66
2023-04-03T22:36:50.831Z,3.61
2023-04-03T22:41:00.797Z,3.55
2023-04-03T22:45:04.941Z,3.46
2023-04-03T22:49:08.159Z,3.39
2023-04-03T22:53:11.270Z,3.33
2023-04-03T22:57:14.292Z,3.28
2023-04-03T23:01:19.483Z,3.27
2023-04-03T23:05:22.579Z,3.24
2023-04-03T23:09:25.551Z,3.24
2023-04-03T23:13:28.676Z,3.28
2023-04-03T23:17:32.557Z,3.30
2023-04-03T23:21:36.399Z,3.33
2023-04-03T23:25:39.474Z,3.32
2023-04-03T23:29:43.536Z,3.25
2023-04-03T23:33:46.528Z,3.22
2023-04-03T23:37:49.455Z,3.17
2023-04-03T23:41:52.505Z,3.17
2023-04-03T23:45:55.321Z,3.16
2023-04-03T23:49:58.553Z,3.14
2023-04-03T23:54:01.727Z,3.10
2023-04-03T23:58:04.710Z,3.07
